sensor_id;sensor_type;location;lat;lon;timestamp;P1;durP1;ratioP1;P2;durP2;ratioP2
55756;SDS011;41676;44.610;44.078;2022-10-13T00:01:33;10.23;;;4.65;;
55756;SDS011;41676;44.610;44.078;2022-10-13T00:06:34;7.20;;;4.45;;
55756;SDS011;41676;44.610;44.078;2022-10-13T00:11:35;5.82;;;3.85;;
55756;SDS011;41676;44.610;44.078;2022-10-13T00:16:36;13.77;;;4.53;;
55756;SDS011;41676;44.610;44.078;2022-10-13T00:21:37;10.25;;;4.20;;
55756;SDS011;41676;44.610;44.078;2022-10-13T00:26:38;8.38;;;4.13;;
55756;SDS011;41676;44.610;44.078;2022-10-13T00:31:38;8.70;;;4.25;;
55756;SDS011;41676;44.610;44.078;2022-10-13T00:36:39;14.32;;;3.83;;
55756;SDS011;41676;44.610;44.078;2022-10-13T00:41:40;19.08;;;4.25;;
55756;SDS011;41676;44.610;44.078;2022-10-13T00:46:41;11.77;;;4.35;;
55756;SDS011;41676;44.610;44.078;2022-10-13T00:51:42;8.25;;;4.10;;
55756;SDS011;41676;44.610;44.078;2022-10-13T00:56:46;5.78;;;3.95;;
55756;SDS011;41676;44.610;44.078;2022-10-13T01:01:50;10.90;;;4.72;;
55756;SDS011;41676;44.610;44.078;2022-10-13T01:06:51;15.13;;;4.45;;
55756;SDS011;41676;44.610;44.078;2022-10-13T01:12:07;19.92;;;4.72;;
55756;SDS011;41676;44.610;44.078;2022-10-13T01:43:33;8.10;;;3.70;;
55756;SDS011;41676;44.610;44.078;2022-10-13T01:48:39;6.55;;;4.05;;
55756;SDS011;41676;44.610;44.078;2022-10-13T01:53:44;13.00;;;3.95;;
55756;SDS011;41676;44.610;44.078;2022-10-13T01:58:47;8.75;;;4.40;;
55756;SDS011;41676;44.610;44.078;2022-10-13T02:09:26;12.23;;;4.68;;
55756;SDS011;41676;44.610;44.078;2022-10-13T02:14:35;5.93;;;4.20;;
55756;SDS011;41676;44.610;44.078;2022-10-13T02:19:39;8.25;;;4.38;;
55756;SDS011;41676;44.610;44.078;2022-10-13T02:24:40;13.43;;;4.70;;
55756;SDS011;41676;44.610;44.078;2022-10-13T02:29:48;8.15;;;4.57;;
55756;SDS011;41676;44.610;44.078;2022-10-13T02:34:53;13.20;;;4.55;;
55756;SDS011;41676;44.610;44.078;2022-10-13T02:39:54;27.90;;;4.40;;
55756;SDS011;41676;44.610;44.078;2022-10-13T02:44:55;13.18;;;4.97;;
55756;SDS011;41676;44.610;44.078;2022-10-13T02:49:55;6.70;;;4.32;;
55756;SDS011;41676;44.610;44.078;2022-10-13T02:54:56;17.05;;;5.13;;
55756;SDS011;41676;44.610;44.078;2022-10-13T02:59:57;34.17;;;5.20;;
55756;SDS011;41676;44.610;44.078;2022-10-13T03:04:58;24.23;;;4.80;;
55756;SDS011;41676;44.610;44.078;2022-10-13T03:09:58;44.45;;;5.82;;
55756;SDS011;41676;44.610;44.078;2022-10-13T03:14:59;107.07;;;8.95;;
55756;SDS011;41676;44.610;44.078;2022-10-13T03:20:00;118.80;;;9.95;;
55756;SDS011;41676;44.610;44.078;2022-10-13T03:25:01;25.88;;;6.03;;
55756;SDS011;41676;44.610;44.078;2022-10-13T03:30:02;7.05;;;4.28;;
55756;SDS011;41676;44.610;44.078;2022-10-13T03:35:05;123.40;;;9.90;;
55756;SDS011;41676;44.610;44.078;2022-10-13T03:40:06;28.02;;;5.75;;
55756;SDS011;41676;44.610;44.078;2022-10-13T03:45:07;36.95;;;6.05;;
55756;SDS011;41676;44.610;44.078;2022-10-13T03:50:09;52.40;;;5.80;;
55756;SDS011;41676;44.610;44.078;2022-10-13T03:55:10;28.83;;;5.72;;
55756;SDS011;41676;44.610;44.078;2022-10-13T04:00:11;57.58;;;9.88;;
55756;SDS011;41676;44.610;44.078;2022-10-13T04:05:13;35.47;;;9.10;;
55756;SDS011;41676;44.610;44.078;2022-10-13T04:10:13;25.50;;;7.68;;
55756;SDS011;41676;44.610;44.078;2022-10-13T04:15:14;18.15;;;5.47;;
55756;SDS011;41676;44.610;44.078;2022-10-13T04:20:15;19.95;;;5.05;;
55756;SDS011;41676;44.610;44.078;2022-10-13T04:25:16;12.00;;;4.90;;
55756;SDS011;41676;44.610;44.078;2022-10-13T04:30:17;17.90;;;4.55;;
55756;SDS011;41676;44.610;44.078;2022-10-13T04:35:18;16.92;;;4.45;;
55756;SDS011;41676;44.610;44.078;2022-10-13T04:40:19;16.55;;;3.67;;
55756;SDS011;41676;44.610;44.078;2022-10-13T04:45:20;11.52;;;4.53;;
55756;SDS011;41676;44.610;44.078;2022-10-13T04:50:20;17.92;;;4.55;;
55756;SDS011;41676;44.610;44.078;2022-10-13T04:55:21;14.05;;;5.00;;
55756;SDS011;41676;44.610;44.078;2022-10-13T05:00:22;10.80;;;3.97;;
55756;SDS011;41676;44.610;44.078;2022-10-13T05:05:23;11.75;;;4.80;;
55756;SDS011;41676;44.610;44.078;2022-10-13T05:10:23;14.82;;;4.53;;
55756;SDS011;41676;44.610;44.078;2022-10-13T05:15:24;9.10;;;5.15;;
55756;SDS011;41676;44.610;44.078;2022-10-13T05:20:25;11.95;;;4.30;;
55756;SDS011;41676;44.610;44.078;2022-10-13T05:25:26;8.73;;;4.30;;
55756;SDS011;41676;44.610;44.078;2022-10-13T05:30:27;8.55;;;4.57;;
55756;SDS011;41676;44.610;44.078;2022-10-13T05:35:28;12.25;;;4.45;;
55756;SDS011;41676;44.610;44.078;2022-10-13T05:40:28;4.90;;;3.47;;
55756;SDS011;41676;44.610;44.078;2022-10-13T05:45:29;13.05;;;4.28;;
55756;SDS011;41676;44.610;44.078;2022-10-13T05:50:33;8.52;;;4.47;;
55756;SDS011;41676;44.610;44.078;2022-10-13T05:55:33;8.13;;;4.63;;
55756;SDS011;41676;44.610;44.078;2022-10-13T06:00:34;13.05;;;4.90;;
55756;SDS011;41676;44.610;44.078;2022-10-13T06:05:35;13.05;;;5.30;;
55756;SDS011;41676;44.610;44.078;2022-10-13T06:10:37;24.75;;;5.30;;
55756;SDS011;41676;44.610;44.078;2022-10-13T06:15:38;7.95;;;5.30;;
55756;SDS011;41676;44.610;44.078;2022-10-13T06:20:38;13.52;;;7.82;;
55756;SDS011;41676;44.610;44.078;2022-10-13T06:25:49;13.10;;;6.40;;
55756;SDS011;41676;44.610;44.078;2022-10-13T06:30:51;9.23;;;4.50;;
55756;SDS011;41676;44.610;44.078;2022-10-13T06:36:01;11.18;;;4.53;;
55756;SDS011;41676;44.610;44.078;2022-10-13T06:41:03;6.18;;;3.63;;
55756;SDS011;41676;44.610;44.078;2022-10-13T06:46:05;6.47;;;3.83;;
55756;SDS011;41676;44.610;44.078;2022-10-13T06:51:07;7.55;;;3.60;;
55756;SDS011;41676;44.610;44.078;2022-10-13T06:56:09;5.13;;;3.65;;
55756;SDS011;41676;44.610;44.078;2022-10-13T07:01:11;5.88;;;3.05;;
55756;SDS011;41676;44.610;44.078;2022-10-13T07:06:12;4.55;;;2.33;;
55756;SDS011;41676;44.610;44.078;2022-10-13T07:11:13;5.10;;;3.05;;
55756;SDS011;41676;44.610;44.078;2022-10-13T07:16:14;6.60;;;3.28;;
55756;SDS011;41676;44.610;44.078;2022-10-13T07:21:15;5.72;;;2.60;;
55756;SDS011;41676;44.610;44.078;2022-10-13T07:26:16;8.85;;;2.80;;
55756;SDS011;41676;44.610;44.078;2022-10-13T07:31:18;4.30;;;2.50;;
55756;SDS011;41676;44.610;44.078;2022-10-13T07:36:19;4.85;;;2.70;;
55756;SDS011;41676;44.610;44.078;2022-10-13T07:41:20;5.38;;;2.78;;
55756;SDS011;41676;44.610;44.078;2022-10-13T07:46:21;5.63;;;2.60;;
55756;SDS011;41676;44.610;44.078;2022-10-13T07:51:22;7.22;;;4.00;;
55756;SDS011;41676;44.610;44.078;2022-10-13T07:56:23;5.90;;;3.50;;
55756;SDS011;41676;44.610;44.078;2022-10-13T08:01:24;17.45;;;7.57;;
55756;SDS011;41676;44.610;44.078;2022-10-13T08:06:24;15.27;;;2.83;;
55756;SDS011;41676;44.610;44.078;2022-10-13T08:11:25;4.35;;;1.90;;
55756;SDS011;41676;44.610;44.078;2022-10-13T08:16:27;5.97;;;1.85;;
55756;SDS011;41676;44.610;44.078;2022-10-13T08:21:29;7.88;;;4.38;;
55756;SDS011;41676;44.610;44.078;2022-10-13T08:26:29;8.43;;;2.30;;
55756;SDS011;41676;44.610;44.078;2022-10-13T08:31:30;4.40;;;2.45;;
55756;SDS011;41676;44.610;44.078;2022-10-13T08:36:31;4.28;;;2.00;;
55756;SDS011;41676;44.610;44.078;2022-10-13T08:41:35;6.47;;;2.60;;
55756;SDS011;41676;44.610;44.078;2022-10-13T08:52:21;4.85;;;2.10;;
55756;SDS011;41676;44.610;44.078;2022-10-13T08:57:23;4.95;;;2.50;;
55756;SDS011;41676;44.610;44.078;2022-10-13T09:02:28;10.57;;;2.92;;
55756;SDS011;41676;44.610;44.078;2022-10-13T09:07:31;15.13;;;2.90;;
55756;SDS011;41676;44.610;44.078;2022-10-13T09:12:36;7.93;;;2.92;;
55756;SDS011;41676;44.610;44.078;2022-10-13T09:17:38;12.60;;;3.45;;
55756;SDS011;41676;44.610;44.078;2022-10-13T09:22:40;4.03;;;2.40;;
55756;SDS011;41676;44.610;44.078;2022-10-13T09:27:43;9.68;;;2.80;;
55756;SDS011;41676;44.610;44.078;2022-10-13T09:32:44;10.48;;;2.60;;
55756;SDS011;41676;44.610;44.078;2022-10-13T09:37:45;3.72;;;2.60;;
55756;SDS011;41676;44.610;44.078;2022-10-13T09:43:01;4.53;;;2.80;;
55756;SDS011;41676;44.610;44.078;2022-10-13T09:48:06;8.20;;;2.50;;
55756;SDS011;41676;44.610;44.078;2022-10-13T09:53:27;3.50;;;2.22;;
55756;SDS011;41676;44.610;44.078;2022-10-13T09:58:30;5.20;;;2.70;;
55756;SDS011;41676;44.610;44.078;2022-10-13T10:03:35;7.13;;;2.60;;
55756;SDS011;41676;44.610;44.078;2022-10-13T10:08:43;15.30;;;2.95;;
55756;SDS011;41676;44.610;44.078;2022-10-13T10:13:49;7.40;;;2.70;;
55756;SDS011;41676;44.610;44.078;2022-10-13T10:18:57;7.95;;;2.97;;
55756;SDS011;41676;44.610;44.078;2022-10-13T10:29:43;5.45;;;2.80;;
55756;SDS011;41676;44.610;44.078;2022-10-13T10:45:35;6.22;;;2.55;;
55756;SDS011;41676;44.610;44.078;2022-10-13T10:50:38;10.15;;;2.60;;
55756;SDS011;41676;44.610;44.078;2022-10-13T11:01:04;6.88;;;2.63;;
55756;SDS011;41676;44.610;44.078;2022-10-13T11:22:10;8.85;;;3.00;;
55756;SDS011;41676;44.610;44.078;2022-10-13T11:27:21;5.43;;;3.47;;
55756;SDS011;41676;44.610;44.078;2022-10-13T11:59:03;6.20;;;2.38;;
55756;SDS011;41676;44.610;44.078;2022-10-13T12:04:11;3.60;;;2.10;;
55756;SDS011;41676;44.610;44.078;2022-10-13T12:09:16;4.35;;;2.20;;
55756;SDS011;41676;44.610;44.078;2022-10-13T12:14:26;7.38;;;2.53;;
55756;SDS011;41676;44.610;44.078;2022-10-13T12:19:38;4.25;;;2.20;;
55756;SDS011;41676;44.610;44.078;2022-10-13T12:24:39;6.07;;;2.70;;
55756;SDS011;41676;44.610;44.078;2022-10-13T12:29:40;9.05;;;2.80;;
55756;SDS011;41676;44.610;44.078;2022-10-13T12:34:41;8.85;;;2.92;;
55756;SDS011;41676;44.610;44.078;2022-10-13T12:39:41;5.00;;;2.42;;
55756;SDS011;41676;44.610;44.078;2022-10-13T12:44:43;6.63;;;2.75;;
55756;SDS011;41676;44.610;44.078;2022-10-13T12:49:44;4.88;;;2.30;;
55756;SDS011;41676;44.610;44.078;2022-10-13T12:54:46;3.92;;;2.42;;
55756;SDS011;41676;44.610;44.078;2022-10-13T12:59:47;11.75;;;2.10;;
55756;SDS011;41676;44.610;44.078;2022-10-13T13:04:48;17.25;;;3.28;;
55756;SDS011;41676;44.610;44.078;2022-10-13T13:20:34;30.08;;;6.88;;
55756;SDS011;41676;44.610;44.078;2022-10-13T13:25:36;31.25;;;7.88;;
55756;SDS011;41676;44.610;44.078;2022-10-13T13:30:37;83.25;;;23.13;;
55756;SDS011;41676;44.610;44.078;2022-10-13T13:35:38;39.22;;;12.15;;
55756;SDS011;41676;44.610;44.078;2022-10-13T13:40:39;58.10;;;9.75;;
55756;SDS011;41676;44.610;44.078;2022-10-13T13:45:40;32.92;;;9.15;;
55756;SDS011;41676;44.610;44.078;2022-10-13T13:50:40;73.40;;;10.27;;
55756;SDS011;41676;44.610;44.078;2022-10-13T13:55:41;53.70;;;12.48;;
55756;SDS011;41676;44.610;44.078;2022-10-13T14:00:46;48.83;;;14.63;;
55756;SDS011;41676;44.610;44.078;2022-10-13T14:05:47;58.67;;;17.42;;
55756;SDS011;41676;44.610;44.078;2022-10-13T14:10:48;51.40;;;14.55;;
55756;SDS011;41676;44.610;44.078;2022-10-13T14:15:58;34.92;;;10.25;;
55756;SDS011;41676;44.610;44.078;2022-10-13T14:21:04;41.50;;;9.57;;
55756;SDS011;41676;44.610;44.078;2022-10-13T14:26:06;29.23;;;9.38;;
55756;SDS011;41676;44.610;44.078;2022-10-13T14:31:09;32.33;;;8.95;;
55756;SDS011;41676;44.610;44.078;2022-10-13T14:36:10;68.13;;;12.20;;
55756;SDS011;41676;44.610;44.078;2022-10-13T14:41:11;58.90;;;11.63;;
55756;SDS011;41676;44.610;44.078;2022-10-13T14:46:12;34.75;;;12.15;;
55756;SDS011;41676;44.610;44.078;2022-10-13T14:51:13;53.50;;;15.98;;
55756;SDS011;41676;44.610;44.078;2022-10-13T14:56:23;53.53;;;16.42;;
55756;SDS011;41676;44.610;44.078;2022-10-13T15:01:25;51.85;;;18.77;;
55756;SDS011;41676;44.610;44.078;2022-10-13T15:06:27;63.05;;;27.10;;
55756;SDS011;41676;44.610;44.078;2022-10-13T15:11:28;52.95;;;25.38;;
55756;SDS011;41676;44.610;44.078;2022-10-13T15:16:29;61.80;;;23.08;;
55756;SDS011;41676;44.610;44.078;2022-10-13T15:21:34;66.32;;;26.58;;
55756;SDS011;41676;44.610;44.078;2022-10-13T15:26:34;118.78;;;31.65;;
55756;SDS011;41676;44.610;44.078;2022-10-13T15:31:36;93.13;;;38.42;;
55756;SDS011;41676;44.610;44.078;2022-10-13T15:36:36;85.18;;;42.05;;
55756;SDS011;41676;44.610;44.078;2022-10-13T15:41:37;115.15;;;48.83;;
55756;SDS011;41676;44.610;44.078;2022-10-13T15:46:38;94.70;;;43.42;;
55756;SDS011;41676;44.610;44.078;2022-10-13T15:51:39;69.25;;;31.45;;
55756;SDS011;41676;44.610;44.078;2022-10-13T15:56:40;54.63;;;26.25;;
55756;SDS011;41676;44.610;44.078;2022-10-13T16:01:41;51.00;;;22.77;;
55756;SDS011;41676;44.610;44.078;2022-10-13T16:06:42;46.67;;;20.85;;
55756;SDS011;41676;44.610;44.078;2022-10-13T16:11:43;52.42;;;15.93;;
55756;SDS011;41676;44.610;44.078;2022-10-13T16:16:43;26.60;;;13.93;;
55756;SDS011;41676;44.610;44.078;2022-10-13T16:21:44;34.20;;;13.88;;
55756;SDS011;41676;44.610;44.078;2022-10-13T16:26:46;20.90;;;10.95;;
55756;SDS011;41676;44.610;44.078;2022-10-13T16:31:46;22.55;;;11.48;;
55756;SDS011;41676;44.610;44.078;2022-10-13T16:36:47;24.05;;;11.23;;
55756;SDS011;41676;44.610;44.078;2022-10-13T16:41:49;21.50;;;9.82;;
55756;SDS011;41676;44.610;44.078;2022-10-13T16:46:50;18.83;;;9.23;;
55756;SDS011;41676;44.610;44.078;2022-10-13T16:51:53;19.60;;;8.82;;
55756;SDS011;41676;44.610;44.078;2022-10-13T16:56:53;21.67;;;8.90;;
55756;SDS011;41676;44.610;44.078;2022-10-13T17:01:54;16.73;;;8.20;;
55756;SDS011;41676;44.610;44.078;2022-10-13T17:06:57;17.98;;;7.47;;
55756;SDS011;41676;44.610;44.078;2022-10-13T17:11:57;19.42;;;7.78;;
55756;SDS011;41676;44.610;44.078;2022-10-13T17:16:59;12.15;;;6.45;;
55756;SDS011;41676;44.610;44.078;2022-10-13T17:21:59;12.25;;;6.70;;
55756;SDS011;41676;44.610;44.078;2022-10-13T17:27:00;25.42;;;6.43;;
55756;SDS011;41676;44.610;44.078;2022-10-13T17:32:01;20.70;;;5.88;;
55756;SDS011;41676;44.610;44.078;2022-10-13T17:37:02;16.38;;;6.65;;
55756;SDS011;41676;44.610;44.078;2022-10-13T17:42:04;8.18;;;4.93;;
55756;SDS011;41676;44.610;44.078;2022-10-13T17:47:05;18.95;;;6.60;;
55756;SDS011;41676;44.610;44.078;2022-10-13T17:52:06;15.77;;;5.93;;
55756;SDS011;41676;44.610;44.078;2022-10-13T17:57:07;27.80;;;6.32;;
55756;SDS011;41676;44.610;44.078;2022-10-13T18:02:08;17.95;;;6.20;;
55756;SDS011;41676;44.610;44.078;2022-10-13T18:07:09;11.07;;;5.72;;
55756;SDS011;41676;44.610;44.078;2022-10-13T18:12:10;18.60;;;6.60;;
55756;SDS011;41676;44.610;44.078;2022-10-13T18:17:11;10.98;;;6.13;;
55756;SDS011;41676;44.610;44.078;2022-10-13T18:22:12;14.18;;;6.60;;
55756;SDS011;41676;44.610;44.078;2022-10-13T18:27:13;18.38;;;6.00;;
55756;SDS011;41676;44.610;44.078;2022-10-13T18:32:13;13.13;;;5.82;;
55756;SDS011;41676;44.610;44.078;2022-10-13T18:37:15;16.05;;;5.82;;
55756;SDS011;41676;44.610;44.078;2022-10-13T18:42:15;10.30;;;5.53;;
55756;SDS011;41676;44.610;44.078;2022-10-13T18:47:16;9.98;;;5.85;;
55756;SDS011;41676;44.610;44.078;2022-10-13T18:52:17;25.00;;;7.88;;
55756;SDS011;41676;44.610;44.078;2022-10-13T18:57:18;21.98;;;6.72;;
55756;SDS011;41676;44.610;44.078;2022-10-13T19:02:19;28.67;;;8.82;;
55756;SDS011;41676;44.610;44.078;2022-10-13T19:07:20;31.73;;;10.05;;
55756;SDS011;41676;44.610;44.078;2022-10-13T19:12:20;22.15;;;10.20;;
55756;SDS011;41676;44.610;44.078;2022-10-13T19:17:21;25.00;;;10.05;;
55756;SDS011;41676;44.610;44.078;2022-10-13T19:22:22;24.92;;;10.07;;
55756;SDS011;41676;44.610;44.078;2022-10-13T19:27:23;41.05;;;16.38;;
55756;SDS011;41676;44.610;44.078;2022-10-13T19:32:24;30.50;;;13.05;;
55756;SDS011;41676;44.610;44.078;2022-10-13T19:37:24;86.95;;;25.90;;
55756;SDS011;41676;44.610;44.078;2022-10-13T19:42:25;41.90;;;16.98;;
55756;SDS011;41676;44.610;44.078;2022-10-13T19:47:26;18.13;;;8.75;;
55756;SDS011;41676;44.610;44.078;2022-10-13T19:52:27;13.20;;;8.30;;
55756;SDS011;41676;44.610;44.078;2022-10-13T19:57:28;15.82;;;7.93;;
55756;SDS011;41676;44.610;44.078;2022-10-13T20:02:29;10.80;;;6.53;;
55756;SDS011;41676;44.610;44.078;2022-10-13T20:07:30;12.02;;;6.82;;
55756;SDS011;41676;44.610;44.078;2022-10-13T20:12:31;10.38;;;7.20;;
55756;SDS011;41676;44.610;44.078;2022-10-13T20:17:31;12.40;;;6.82;;
55756;SDS011;41676;44.610;44.078;2022-10-13T20:22:32;15.38;;;7.25;;
55756;SDS011;41676;44.610;44.078;2022-10-13T20:27:33;19.88;;;6.95;;
55756;SDS011;41676;44.610;44.078;2022-10-13T20:32:35;11.05;;;6.85;;
55756;SDS011;41676;44.610;44.078;2022-10-13T20:37:36;10.65;;;7.13;;
55756;SDS011;41676;44.610;44.078;2022-10-13T20:42:37;15.65;;;7.30;;
55756;SDS011;41676;44.610;44.078;2022-10-13T20:47:37;11.35;;;7.55;;
55756;SDS011;41676;44.610;44.078;2022-10-13T20:52:38;28.75;;;14.18;;
55756;SDS011;41676;44.610;44.078;2022-10-13T20:57:39;21.25;;;11.20;;
55756;SDS011;41676;44.610;44.078;2022-10-13T21:02:39;23.27;;;10.77;;
55756;SDS011;41676;44.610;44.078;2022-10-13T21:07:40;93.13;;;38.00;;
55756;SDS011;41676;44.610;44.078;2022-10-13T21:12:41;54.67;;;26.52;;
55756;SDS011;41676;44.610;44.078;2022-10-13T21:17:42;38.60;;;16.52;;
55756;SDS011;41676;44.610;44.078;2022-10-13T21:22:43;31.33;;;14.75;;
55756;SDS011;41676;44.610;44.078;2022-10-13T21:27:43;27.38;;;13.73;;
55756;SDS011;41676;44.610;44.078;2022-10-13T21:32:44;25.27;;;10.27;;
55756;SDS011;41676;44.610;44.078;2022-10-13T21:37:45;14.18;;;7.63;;
55756;SDS011;41676;44.610;44.078;2022-10-13T21:42:46;17.23;;;7.93;;
55756;SDS011;41676;44.610;44.078;2022-10-13T21:47:47;13.30;;;8.27;;
55756;SDS011;41676;44.610;44.078;2022-10-13T21:52:48;16.80;;;7.63;;
55756;SDS011;41676;44.610;44.078;2022-10-13T21:57:48;14.05;;;7.75;;
55756;SDS011;41676;44.610;44.078;2022-10-13T22:02:49;16.88;;;7.90;;
55756;SDS011;41676;44.610;44.078;2022-10-13T22:07:50;12.63;;;7.80;;
55756;SDS011;41676;44.610;44.078;2022-10-13T22:12:51;17.48;;;9.00;;
55756;SDS011;41676;44.610;44.078;2022-10-13T22:17:51;33.10;;;16.92;;
55756;SDS011;41676;44.610;44.078;2022-10-13T22:22:52;30.50;;;12.18;;
55756;SDS011;41676;44.610;44.078;2022-10-13T22:27:53;32.17;;;16.00;;
55756;SDS011;41676;44.610;44.078;2022-10-13T22:32:54;31.58;;;13.68;;
55756;SDS011;41676;44.610;44.078;2022-10-13T22:37:55;27.98;;;13.13;;
55756;SDS011;41676;44.610;44.078;2022-10-13T22:42:55;29.17;;;15.45;;
55756;SDS011;41676;44.610;44.078;2022-10-13T22:47:56;35.50;;;13.30;;
55756;SDS011;41676;44.610;44.078;2022-10-13T22:52:57;35.40;;;15.18;;
55756;SDS011;41676;44.610;44.078;2022-10-13T22:57:58;52.05;;;22.38;;
55756;SDS011;41676;44.610;44.078;2022-10-13T23:02:58;21.13;;;12.38;;
55756;SDS011;41676;44.610;44.078;2022-10-13T23:07:59;35.20;;;15.05;;
55756;SDS011;41676;44.610;44.078;2022-10-13T23:13:00;14.30;;;9.07;;
55756;SDS011;41676;44.610;44.078;2022-10-13T23:18:01;14.15;;;8.40;;
55756;SDS011;41676;44.610;44.078;2022-10-13T23:23:01;14.93;;;6.60;;
55756;SDS011;41676;44.610;44.078;2022-10-13T23:28:02;19.58;;;9.25;;
55756;SDS011;41676;44.610;44.078;2022-10-13T23:33:03;14.60;;;7.78;;
55756;SDS011;41676;44.610;44.078;2022-10-13T23:38:04;19.75;;;8.77;;
55756;SDS011;41676;44.610;44.078;2022-10-13T23:43:05;32.47;;;8.68;;
55756;SDS011;41676;44.610;44.078;2022-10-13T23:48:05;23.88;;;12.07;;
55756;SDS011;41676;44.610;44.078;2022-10-13T23:53:06;30.50;;;14.20;;
55756;SDS011;41676;44.610;44.078;2022-10-13T23:58:07;31.38;;;13.70;;
